Time;durP1;ratioP1;P1;durP2;ratioP2;P2;SDS_P1;SDS_P2;PMS_P1;PMS_P2;Temp;Humidity;BMP_temperature;BMP_pressure;BME280_temperature;BME280_humidity;BME280_pressure;Samples;Min_cycle;Max_cycle;Signal;HPM_P1;HPM_P2
2022/09/12 00:01:26;;;;;;;4.55;3.08;;;;;;;18.57;nan;-24334.09;5038756;28;20193;-77
2022/09/12 00:03:58;;;;;;;6.07;2.92;;;;;;;18.82;nan;-24340.91;5046015;28;20187;-78
2022/09/12 00:06:29;;;;;;;4.75;2.97;;;;;;;18.71;nan;-24338.00;5042914;28;20190;-78
2022/09/12 00:08:59;;;;;;;4.55;2.95;;;;;;;18.70;nan;-24337.72;5047181;28;20263;-78
2022/09/12 00:11:25;;;;;;;5.65;2.88;;;;;;;18.78;nan;-24339.94;5043159;28;20183;-78
2022/09/12 00:13:54;;;;;;;4.35;2.97;;;;;;;18.61;nan;-24335.06;5048102;28;20640;-77
2022/09/12 00:16:22;;;;;;;4.60;2.92;;;;;;;18.91;nan;-24343.41;5033366;28;20243;-77
2022/09/12 00:18:48;;;;;;;5.47;3.15;;;;;;;18.78;nan;-24339.94;5039657;28;20613;-76
2022/09/12 00:21:16;;;;;;;4.55;3.08;;;;;;;18.53;nan;-24333.13;5039860;28;20215;-76
2022/09/12 00:23:42;;;;;;;3.65;2.63;;;;;;;18.62;nan;-24335.34;5044013;28;20213;-77
2022/09/12 00:26:08;;;;;;;3.90;2.60;;;;;;;18.80;nan;-24340.50;5040622;28;20217;-77
2022/09/12 00:28:35;;;;;;;5.05;3.17;;;;;;;18.47;nan;-24331.44;5043375;28;20846;-77
2022/09/12 00:31:15;;;;;;;5.20;3.10;;;;;;;18.78;nan;-24339.78;5044568;28;20231;-76
2022/09/12 00:33:41;;;;;;;6.72;3.10;;;;;;;18.43;nan;-24330.19;5046656;28;20694;-77
2022/09/12 00:36:16;;;;;;;4.53;2.75;;;;;;;18.17;nan;-24323.06;5033529;28;20286;-77
2022/09/12 00:38:43;;;;;;;4.53;2.92;;;;;;;18.19;nan;-24323.63;5034428;28;20171;-77
2022/09/12 00:41:33;;;;;;;3.58;2.60;;;;;;;18.48;nan;-24331.56;5041845;28;20183;-77
2022/09/12 00:44:21;;;;;;;5.55;3.83;;;;;;;18.46;nan;-24331.00;5040195;28;20179;-77
2022/09/12 00:47:21;;;;;;;5.68;3.13;;;;;;;18.42;nan;-24330.03;5041319;28;20281;-77
2022/09/12 00:50:10;;;;;;;5.03;3.00;;;;;;;18.11;nan;-24321.41;5018373;28;20278;-77
2022/09/12 00:52:39;;;;;;;4.72;3.08;;;;;;;18.37;nan;-24328.50;5036414;28;20187;-77
2022/09/12 00:55:14;;;;;;;4.38;2.90;;;;;;;18.29;nan;-24326.41;5044117;28;20179;-77
2022/09/12 00:58:03;;;;;;;4.20;2.78;;;;;;;18.23;nan;-24324.75;5039935;28;20657;-78
2022/09/12 01:00:29;;;;;;;3.55;2.60;;;;;;;18.42;nan;-24330.03;5035195;28;20199;-77
2022/09/12 01:02:59;;;;;;;4.22;2.78;;;;;;;18.13;nan;-24321.81;5048143;28;20193;-77
2022/09/12 01:05:27;;;;;;;4.35;2.80;;;;;;;18.10;nan;-24321.13;5044839;28;20178;-77
2022/09/12 01:07:55;;;;;;;4.75;3.10;;;;;;;18.34;nan;-24327.69;5050281;28;20203;-77
2022/09/12 01:10:22;;;;;;;6.13;2.92;;;;;;;18.21;nan;-24324.06;5042839;28;20179;-77
2022/09/12 01:12:48;;;;;;;3.88;2.90;;;;;;;18.21;nan;-24324.19;5032401;28;20191;-76
2022/09/12 01:15:14;;;;;;;4.57;2.88;;;;;;;17.94;nan;-24316.66;5034038;28;20183;-77
2022/09/12 01:18:17;;;;;;;5.97;3.20;;;;;;;18.17;nan;-24323.06;5046367;28;20179;-77
2022/09/12 01:20:49;;;;;;;4.82;2.70;;;;;;;18.12;nan;-24321.53;5037788;28;20218;-75
2022/09/12 01:23:33;;;;;;;4.35;2.88;;;;;;;18.12;nan;-24321.69;5049008;28;20282;-75
2022/09/12 01:26:31;;;;;;;3.92;2.78;;;;;;;18.09;nan;-24320.84;5042269;28;20577;-75
2022/09/12 01:29:24;;;;;;;4.53;3.10;;;;;;;17.73;nan;-24310.81;5027008;28;20304;-75
2022/09/12 01:32:14;;;;;;;3.95;2.63;;;;;;;18.09;nan;-24320.97;5041840;28;20187;-75
2022/09/12 01:35:06;;;;;;;3.47;2.72;;;;;;;17.85;nan;-24314.28;5033457;28;20265;-76
2022/09/12 01:37:56;;;;;;;3.88;2.88;;;;;;;17.89;nan;-24315.28;5041821;28;20214;-76
2022/09/12 01:41:03;;;;;;;4.47;2.58;;;;;;;18.17;nan;-24323.06;5057398;28;20570;-76
2022/09/12 01:43:42;;;;;;;4.15;2.50;;;;;;;17.82;nan;-24313.31;5034770;28;20182;-76
2022/09/12 01:46:35;;;;;;;4.63;3.00;;;;;;;17.72;nan;-24310.66;5042357;28;20190;-76
2022/09/12 01:49:07;;;;;;;2.58;2.30;;;;;;;18.03;nan;-24319.19;5044507;28;20209;-76
2022/09/12 01:51:55;;;;;;;3.50;2.53;;;;;;;18.04;nan;-24319.59;5049542;28;20247;-76
2022/09/12 01:54:37;;;;;;;5.25;3.00;;;;;;;17.83;nan;-24313.75;5033664;28;20183;-76
2022/09/12 01:57:11;;;;;;;4.10;2.28;;;;;;;17.65;nan;-24308.72;5039723;28;20274;-76
2022/09/12 01:59:45;;;;;;;3.45;2.35;;;;;;;17.60;nan;-24307.47;5044903;28;20799;-76
2022/09/12 02:02:20;;;;;;;4.47;2.97;;;;;;;17.96;nan;-24317.34;5047085;28;20186;-76
2022/09/12 02:05:07;;;;;;;3.20;2.63;;;;;;;18.01;nan;-24318.63;5046742;28;20178;-76
2022/09/12 02:07:56;;;;;;;3.97;2.55;;;;;;;17.99;nan;-24318.06;5033958;28;20190;-76
2022/09/12 02:10:30;;;;;;;3.97;2.67;;;;;;;17.43;nan;-24302.72;5033541;28;20221;-76
2022/09/12 02:13:00;;;;;;;3.05;2.40;;;;;;;17.80;nan;-24312.91;5037264;28;20191;-76
2022/09/12 02:15:33;;;;;;;3.78;2.92;;;;;;;17.42;nan;-24302.44;5043964;28;20198;-76
2022/09/12 02:18:02;;;;;;;3.60;2.72;;;;;;;17.79;nan;-24312.47;5032478;28;20183;-76
2022/09/12 02:20:32;;;;;;;4.20;2.60;;;;;;;17.69;nan;-24309.84;5033141;28;20218;-76
2022/09/12 02:22:59;;;;;;;5.03;2.92;;;;;;;17.67;nan;-24309.28;5032466;28;20183;-76
2022/09/12 02:25:28;;;;;;;3.30;2.70;;;;;;;17.44;nan;-24303.00;5048312;28;20201;-76
2022/09/12 02:28:20;;;;;;;3.97;2.63;;;;;;;17.74;nan;-24311.09;5042576;28;20199;-75
2022/09/12 02:31:01;;;;;;;3.75;2.42;;;;;;;17.30;nan;-24299.09;5036827;28;20202;-76
2022/09/12 02:33:39;;;;;;;4.30;3.00;;;;;;;17.39;nan;-24301.44;5042814;28;20647;-75
2022/09/12 02:36:16;;;;;;;3.92;2.75;;;;;;;17.31;nan;-24299.22;5042203;28;20174;-75
2022/09/12 02:38:45;;;;;;;4.13;2.85;;;;;;;17.56;nan;-24306.34;5043878;28;20312;-76
2022/09/12 02:41:15;;;;;;;3.88;2.80;;;;;;;17.38;nan;-24301.19;5041768;28;20175;-76
2022/09/12 02:43:41;;;;;;;4.85;2.95;;;;;;;17.52;nan;-24305.09;5039261;28;20651;-76
2022/09/12 02:46:12;;;;;;;4.32;2.80;;;;;;;17.42;nan;-24302.28;5031328;28;20186;-76
2022/09/12 02:48:42;;;;;;;3.45;2.30;;;;;;;17.37;nan;-24301.03;5043002;28;20206;-76
2022/09/12 02:51:08;;;;;;;6.32;2.55;;;;;;;17.33;nan;-24299.78;5035243;28;20193;-75
2022/09/12 02:53:35;;;;;;;3.88;2.30;;;;;;;17.42;nan;-24302.44;5040944;28;20225;-75
2022/09/12 02:56:01;;;;;;;4.65;3.03;;;;;;;17.55;nan;-24305.91;5036157;28;20540;-77
2022/09/12 02:58:30;;;;;;;3.53;2.40;;;;;;;17.64;nan;-24308.56;5040209;28;20195;-76
2022/09/12 03:01:22;;;;;;;5.45;3.03;;;;;;;17.48;nan;-24304.09;5038449;28;20809;-75
2022/09/12 03:03:48;;;;;;;4.50;2.58;;;;;;;17.63;nan;-24308.16;5047676;28;20198;-76
2022/09/12 03:06:32;;;;;;;3.92;2.63;;;;;;;17.71;nan;-24310.25;5038016;28;20689;-78
2022/09/12 03:09:09;;;;;;;3.00;2.33;;;;;;;17.72;nan;-24310.53;5036827;28;20191;-76
2022/09/12 03:11:40;;;;;;;3.05;2.22;;;;;;;17.71;nan;-24310.25;5042487;28;20277;-76
2022/09/12 03:14:15;;;;;;;3.67;2.58;;;;;;;17.66;nan;-24309.13;5044739;28;20736;-77
2022/09/12 03:16:48;;;;;;;3.20;2.50;;;;;;;17.62;nan;-24307.88;5015467;28;20673;-75
2022/09/12 03:19:19;;;;;;;2.95;2.53;;;;;;;17.58;nan;-24306.91;5046615;28;20174;-77
2022/09/12 03:21:51;;;;;;;3.20;2.28;;;;;;;17.51;nan;-24304.94;5050262;28;20227;-76
2022/09/12 03:24:28;;;;;;;4.32;2.72;;;;;;;17.54;nan;-24305.78;5041110;28;20191;-76
2022/09/12 03:26:55;;;;;;;3.88;2.53;;;;;;;17.37;nan;-24300.91;5038558;28;20228;-76
2022/09/12 03:29:22;;;;;;;4.25;2.53;;;;;;;17.35;nan;-24300.47;5039389;28;20194;-76
2022/09/12 03:31:50;;;;;;;5.05;2.58;;;;;;;17.33;nan;-24299.91;5039688;28;20178;-76
2022/09/12 03:34:16;;;;;;;3.60;2.70;;;;;;;17.38;nan;-24301.19;5038893;28;20183;-76
2022/09/12 03:36:42;;;;;;;3.13;2.42;;;;;;;17.16;nan;-24295.16;5039008;28;20256;-76
2022/09/12 03:39:07;;;;;;;3.45;2.45;;;;;;;17.12;nan;-24294.06;5038306;28;20663;-76
2022/09/12 03:41:33;;;;;;;4.05;2.60;;;;;;;17.06;nan;-24292.38;5038231;28;20678;-76
2022/09/12 03:43:58;;;;;;;3.28;2.38;;;;;;;17.31;nan;-24299.38;5040757;28;20353;-75
2022/09/12 03:46:24;;;;;;;4.35;2.65;;;;;;;16.87;nan;-24287.06;5038170;28;20206;-76
2022/09/12 03:48:49;;;;;;;3.88;2.75;;;;;;;17.08;nan;-24293.09;5037893;28;20599;-76
2022/09/12 03:51:15;;;;;;;2.53;2.28;;;;;;;16.67;nan;-24281.78;5038010;28;20183;-76
2022/09/12 03:53:41;;;;;;;3.22;2.47;;;;;;;16.92;nan;-24288.47;5037305;28;20206;-76
2022/09/12 03:56:08;;;;;;;3.90;2.65;;;;;;;17.01;nan;-24291.00;5039575;28;20183;-76
2022/09/12 03:58:35;;;;;;;3.55;2.60;;;;;;;16.97;nan;-24289.88;5051733;28;20194;-76
2022/09/12 04:01:11;;;;;;;3.08;2.50;;;;;;;16.78;nan;-24284.84;5038295;28;20571;-76
2022/09/12 04:03:40;;;;;;;2.22;2.03;;;;;;;16.57;nan;-24278.81;5052439;28;20278;-76
2022/09/12 04:06:07;;;;;;;4.55;2.75;;;;;;;16.93;nan;-24288.88;5038983;28;20671;-77
2022/09/12 04:08:34;;;;;;;3.38;2.40;;;;;;;16.97;nan;-24289.88;5038499;28;20677;-65
2022/09/12 04:11:04;;;;;;;4.47;2.45;;;;;;;17.15;nan;-24294.91;5038489;28;20674;-66
2022/09/12 04:13:31;;;;;;;4.32;2.67;;;;;;;17.09;nan;-24293.22;5036233;28;20234;-66
2022/09/12 04:15:58;;;;;;;3.03;2.50;;;;;;;16.89;nan;-24287.78;5037755;28;20174;-66
2022/09/12 04:18:24;;;;;;;3.55;2.50;;;;;;;17.28;nan;-24298.38;5036856;28;20267;-65
2022/09/12 04:20:49;;;;;;;3.75;2.38;;;;;;;17.22;nan;-24297.00;5036473;28;20352;-65
2022/09/12 04:23:15;;;;;;;4.47;2.70;;;;;;;16.79;nan;-24285.13;5037811;28;20179;-65
2022/09/12 04:25:40;;;;;;;6.53;2.45;;;;;;;16.95;nan;-24289.31;5037804;28;20190;-65
2022/09/12 04:28:06;;;;;;;3.08;2.45;;;;;;;16.94;nan;-24289.16;5038035;28;20195;-65
2022/09/12 04:30:33;;;;;;;2.60;2.17;;;;;;;17.08;nan;-24292.94;5035469;28;20635;-65
2022/09/12 04:32:58;;;;;;;2.83;2.20;;;;;;;17.23;nan;-24297.13;5035795;28;20175;-64
2022/09/12 04:35:24;;;;;;;3.10;2.55;;;;;;;17.46;nan;-24303.56;5037683;28;20174;-65
2022/09/12 04:37:49;;;;;;;2.85;2.20;;;;;;;17.45;nan;-24303.28;5036627;28;20294;-65
2022/09/12 04:40:15;;;;;;;2.90;2.28;;;;;;;17.71;nan;-24310.25;5037050;28;20190;-65
2022/09/12 04:42:41;;;;;;;2.38;1.73;;;;;;;17.81;nan;-24313.03;5035498;28;20210;-68
2022/09/12 04:45:07;;;;;;;2.35;2.15;;;;;;;17.61;nan;-24307.75;5033186;28;20670;-68
2022/09/12 04:47:33;;;;;;;3.38;1.92;;;;;;;17.53;nan;-24305.50;5036937;28;20187;-67
2022/09/12 04:49:58;;;;;;;2.92;1.52;;;;;;;17.93;nan;-24316.53;5033627;28;20187;-67
2022/09/12 04:52:24;;;;;;;2.30;1.88;;;;;;;18.10;nan;-24321.13;5034497;28;20186;-67
2022/09/12 04:54:49;;;;;;;4.60;2.38;;;;;;;17.70;nan;-24309.97;5032863;28;20281;-68
2022/09/12 04:57:15;;;;;;;4.82;2.50;;;;;;;17.89;nan;-24315.28;5034488;28;20543;-67
2022/09/12 04:59:41;;;;;;;2.97;2.10;;;;;;;18.19;nan;-24323.63;5036362;28;20201;-68
2022/09/12 05:02:07;;;;;;;8.13;2.97;;;;;;;17.95;nan;-24316.94;5042957;28;20300;-68
2022/09/12 05:04:32;;;;;;;3.35;2.00;;;;;;;18.33;nan;-24327.41;5036841;28;20229;-67
2022/09/12 05:06:58;;;;;;;2.40;1.92;;;;;;;18.13;nan;-24321.97;5043166;28;20222;-68
2022/09/12 05:09:23;;;;;;;3.03;2.20;;;;;;;18.27;nan;-24325.88;5049133;28;20281;-68
2022/09/12 05:11:49;;;;;;;2.97;1.98;;;;;;;18.73;nan;-24338.41;5039985;28;20647;-68
2022/09/12 05:14:14;;;;;;;2.35;1.77;;;;;;;18.29;nan;-24326.28;5043312;28;20182;-68
2022/09/12 05:16:40;;;;;;;3.03;2.17;;;;;;;18.58;nan;-24334.38;5044970;28;20186;-68
2022/09/12 05:19:05;;;;;;;2.00;1.65;;;;;;;18.75;nan;-24339.09;5036571;28;20726;-68
2022/09/12 05:21:31;;;;;;;4.60;2.10;;;;;;;18.52;nan;-24332.81;5038107;28;20227;-68
2022/09/12 05:23:58;;;;;;;2.08;1.70;;;;;;;18.78;nan;-24339.94;5044466;28;20558;-68
2022/09/12 05:26:24;;;;;;;2.92;1.90;;;;;;;18.76;nan;-24339.25;5039754;28;20557;-68
2022/09/12 05:28:51;;;;;;;1.70;1.60;;;;;;;18.84;nan;-24341.47;5042577;28;20297;-68
2022/09/12 05:31:22;;;;;;;2.05;1.77;;;;;;;19.02;nan;-24346.34;5035724;28;20228;-68
2022/09/12 05:33:50;;;;;;;4.65;2.10;;;;;;;18.79;nan;-24340.06;5042649;28;20242;-68
2022/09/12 05:36:24;;;;;;;3.35;2.10;;;;;;;18.83;nan;-24341.19;5046254;28;20180;-69
2022/09/12 05:38:50;;;;;;;3.03;2.00;;;;;;;18.84;nan;-24341.47;5038069;28;20268;-69
2022/09/12 05:41:21;;;;;;;2.20;1.70;;;;;;;19.31;nan;-24354.41;5040497;28;20321;-68
2022/09/12 05:43:51;;;;;;;2.67;1.83;;;;;;;19.12;nan;-24349.25;5045174;28;20175;-69
2022/09/12 05:46:19;;;;;;;2.30;1.75;;;;;;;19.49;nan;-24359.28;5042888;28;20247;-68
2022/09/12 05:48:46;;;;;;;2.15;1.58;;;;;;;19.56;nan;-24361.22;5034872;28;20210;-69
2022/09/12 05:51:20;;;;;;;2.03;1.70;;;;;;;19.59;nan;-24362.06;5040590;28;20549;-69
2022/09/12 05:53:47;;;;;;;1.90;1.67;;;;;;;19.33;nan;-24354.97;5041174;28;20183;-69
2022/09/12 05:56:18;;;;;;;2.00;1.55;;;;;;;19.75;nan;-24366.66;5035974;28;20197;-68
2022/09/12 05:58:47;;;;;;;2.63;1.90;;;;;;;19.78;nan;-24367.47;5038385;28;20194;-69
2022/09/12 06:01:15;;;;;;;2.28;1.60;;;;;;;19.55;nan;-24361.09;5042729;28;20226;-68
2022/09/12 06:03:49;;;;;;;1.88;1.58;;;;;;;19.68;nan;-24364.56;5037441;28;20281;-68
2022/09/12 06:06:17;;;;;;;1.40;1.30;;;;;;;19.83;nan;-24368.72;5042864;28;20174;-68
2022/09/12 06:08:45;;;;;;;2.75;1.50;;;;;;;19.89;nan;-24370.41;5040401;28;20199;-67
2022/09/12 06:11:16;;;;;;;3.88;1.60;;;;;;;19.68;nan;-24364.56;5035568;28;20179;-68
2022/09/12 06:13:43;;;;;;;1.55;1.40;;;;;;;19.90;nan;-24370.69;5031024;28;20183;-67
2022/09/12 06:16:17;;;;;;;1.63;1.30;;;;;;;20.20;nan;-24379.00;5030580;28;20627;-68
2022/09/12 06:18:52;;;;;;;2.33;1.42;;;;;;;20.52;nan;-24387.75;5032383;28;20178;-63
2022/09/12 06:21:19;;;;;;;2.42;1.70;;;;;;;20.33;nan;-24382.34;5031492;28;20233;-63
2022/09/12 06:23:46;;;;;;;1.60;1.50;;;;;;;20.77;nan;-24394.56;5040694;28;20178;-66
2022/09/12 06:26:13;;;;;;;2.17;1.73;;;;;;;20.62;nan;-24390.41;5033557;28;20262;-66
2022/09/12 06:28:41;;;;;;;2.10;1.55;;;;;;;20.48;nan;-24386.66;5030725;28;20207;-65
2022/09/12 06:31:11;;;;;;;2.47;1.45;;;;;;;20.63;nan;-24390.69;5032154;28;20705;-65
2022/09/12 06:33:43;;;;;;;2.17;1.60;;;;;;;20.72;nan;-24393.19;5031975;28;20175;-64
2022/09/12 06:36:11;;;;;;;2.80;1.73;;;;;;;20.25;nan;-24380.25;5032255;28;20175;-64
2022/09/12 06:38:37;;;;;;;1.85;1.50;;;;;;;20.93;nan;-24399.00;5031856;28;20551;-63
2022/09/12 06:41:05;;;;;;;1.55;1.45;;;;;;;20.82;nan;-24395.81;5037753;28;20175;-64
2022/09/12 06:43:31;;;;;;;1.88;1.55;;;;;;;20.89;nan;-24397.75;5041350;28;20210;-62
2022/09/12 06:45:56;;;;;;;3.63;1.63;;;;;;;20.59;nan;-24389.56;5041036;28;20253;-66
2022/09/12 06:48:22;;;;;;;2.50;1.58;;;;;;;20.94;nan;-24399.28;5041734;28;20289;-66
2022/09/12 06:50:59;;;;;;;2.08;1.40;;;;;;;20.86;nan;-24396.91;5031154;28;20183;-66
2022/09/12 06:53:26;;;;;;;1.58;1.30;;;;;;;21.18;nan;-24405.81;5040411;28;20278;-65
2022/09/12 06:56:12;;;;;;;1.70;1.38;;;;;;;21.41;nan;-24412.03;5033560;28;20241;-67
2022/09/12 06:58:38;;;;;;;1.42;1.30;;;;;;;21.59;nan;-24417.03;5043273;28;20654;-65
2022/09/12 07:01:26;;;;;;;1.95;1.45;;;;;;;21.87;nan;-24424.78;5042219;28;20185;-67
2022/09/12 07:03:59;;;;;;;1.20;1.10;;;;;;;21.66;nan;-24418.97;5037052;28;20194;-65
2022/09/12 07:06:31;;;;;;;1.67;1.40;;;;;;;21.68;nan;-24419.38;5040629;28;20255;-65
2022/09/12 07:08:58;;;;;;;1.70;1.25;;;;;;;21.60;nan;-24417.44;5036933;28;20280;-65
2022/09/12 07:11:26;;;;;;;1.40;1.30;;;;;;;22.00;nan;-24428.38;5042693;28;20185;-66
2022/09/12 07:13:54;;;;;;;1.73;1.38;;;;;;;21.89;nan;-24425.34;5035084;28;20183;-65
2022/09/12 07:16:20;;;;;;;1.42;1.30;;;;;;;21.68;nan;-24419.38;5031097;28;20184;-67
2022/09/12 07:18:57;;;;;;;1.63;1.38;;;;;;;21.76;nan;-24421.75;5043121;28;20650;-66
2022/09/12 07:21:22;;;;;;;1.58;1.40;;;;;;;22.06;nan;-24429.78;5044918;28;20301;-66
2022/09/12 07:23:48;;;;;;;1.27;1.17;;;;;;;21.88;nan;-24424.91;5030733;28;20167;-67
2022/09/12 07:26:15;;;;;;;1.27;1.17;;;;;;;22.06;nan;-24429.78;5030743;28;20258;-65
2022/09/12 07:28:41;;;;;;;2.42;1.67;;;;;;;22.01;nan;-24428.53;5033231;28;20203;-66
2022/09/12 07:31:15;;;;;;;1.60;1.20;;;;;;;22.10;nan;-24430.88;5040290;28;20605;-70
2022/09/12 07:33:41;;;;;;;1.60;1.30;;;;;;;21.90;nan;-24425.47;5033506;28;20601;-69
2022/09/12 07:36:18;;;;;;;1.27;1.17;;;;;;;21.91;nan;-24425.91;5041586;28;20551;-66
2022/09/12 07:38:45;;;;;;;1.30;1.10;;;;;;;22.01;nan;-24428.66;5035468;28;20179;-65
2022/09/12 07:41:22;;;;;;;1.60;1.20;;;;;;;22.14;nan;-24432.00;5041985;28;20182;-65
2022/09/12 07:43:52;;;;;;;1.25;1.15;;;;;;;22.31;nan;-24436.69;5039925;28;20634;-65
2022/09/12 07:46:17;;;;;;;1.27;1.17;;;;;;;21.92;nan;-24426.03;5031241;28;20187;-66
2022/09/12 07:48:44;;;;;;;1.88;1.35;;;;;;;22.17;nan;-24432.81;5031005;28;20286;-67
2022/09/12 07:51:10;;;;;;;1.30;1.15;;;;;;;22.47;nan;-24441.25;5030681;28;20187;-65
2022/09/12 07:53:38;;;;;;;1.33;1.23;;;;;;;22.53;nan;-24442.78;5030879;28;20195;-66
2022/09/12 07:56:05;;;;;;;1.48;1.30;;;;;;;22.72;nan;-24447.91;5031274;28;20178;-65
2022/09/12 07:58:32;;;;;;;1.45;1.10;;;;;;;22.61;nan;-24445.00;5031223;28;20187;-65
2022/09/12 08:01:07;;;;;;;1.20;1.10;;;;;;;22.81;nan;-24450.53;5031154;28;20175;-63
2022/09/12 08:03:34;;;;;;;1.63;1.35;;;;;;;22.60;nan;-24444.56;5031104;28;20262;-64
2022/09/12 08:06:10;;;;;;;1.20;1.10;;;;;;;23.01;nan;-24455.91;5033546;28;20175;-63
2022/09/12 08:08:35;;;;;;;2.90;1.20;;;;;;;22.98;nan;-24455.09;5034348;28;20211;-64
2022/09/12 08:11:04;;;;;;;1.30;1.20;;;;;;;22.81;nan;-24450.38;5034175;28;20179;-65
2022/09/12 08:13:32;;;;;;;0.90;0.90;;;;;;;23.04;nan;-24456.59;5043737;28;20642;-66
2022/09/12 08:15:59;;;;;;;1.10;1.00;;;;;;;23.02;nan;-24456.06;5033982;28;20562;-66
2022/09/12 08:18:27;;;;;;;1.13;1.00;;;;;;;23.24;nan;-24462.28;5033796;28;20189;-67
2022/09/12 08:21:00;;;;;;;1.50;1.17;;;;;;;23.47;nan;-24468.34;5034489;28;20238;-64
2022/09/12 08:23:27;;;;;;;2.95;1.20;;;;;;;23.28;nan;-24463.25;5034211;28;20551;-67
2022/09/12 08:25:55;;;;;;;1.42;1.25;;;;;;;23.49;nan;-24468.91;5034055;28;20222;-68
2022/09/12 08:28:21;;;;;;;1.33;1.10;;;;;;;23.66;nan;-24473.75;5034048;28;20199;-66
2022/09/12 08:30:46;;;;;;;1.33;1.20;;;;;;;23.66;nan;-24473.59;5034160;28;20658;-65
2022/09/12 08:33:11;;;;;;;1.63;1.27;;;;;;;23.65;nan;-24473.47;5034052;28;20262;-65
2022/09/12 08:35:37;;;;;;;1.02;1.00;;;;;;;23.27;nan;-24462.97;5033740;28;20700;-66
2022/09/12 08:38:02;;;;;;;1.13;1.02;;;;;;;23.11;nan;-24458.69;5033584;28;20175;-64
2022/09/12 08:40:27;;;;;;;1.38;1.08;;;;;;;23.20;nan;-24461.16;5034038;28;20175;-67
2022/09/12 08:43:13;;;;;;;1.75;1.10;;;;;;;22.97;nan;-24454.81;5033143;28;20167;-66
2022/09/12 08:45:53;;;;;;;1.27;1.15;;;;;;;23.12;nan;-24458.81;5043115;28;20202;-67
2022/09/12 08:48:19;;;;;;;1.20;1.10;;;;;;;23.06;nan;-24457.16;5033381;28;20237;-66
2022/09/12 08:50:46;;;;;;;1.20;1.10;;;;;;;23.29;nan;-24463.50;5033179;28;20599;-65
2022/09/12 08:53:16;;;;;;;1.30;1.20;;;;;;;23.62;nan;-24472.63;5033114;28;20175;-63
2022/09/12 08:55:45;;;;;;;2.40;1.40;;;;;;;23.45;nan;-24467.78;5033142;28;20688;-65
2022/09/12 08:58:15;;;;;;;1.13;1.02;;;;;;;23.78;nan;-24477.03;5033442;28;20168;-65
2022/09/12 09:01:09;;;;;;;2.80;1.08;;;;;;;23.86;nan;-24478.97;5033740;28;20233;-65
2022/09/12 09:03:52;;;;;;;1.60;1.30;;;;;;;23.75;nan;-24476.22;5033464;28;20163;-66
2022/09/12 09:06:51;;;;;;;1.27;1.00;;;;;;;23.57;nan;-24471.13;5032800;28;20269;-66
2022/09/12 09:09:29;;;;;;;1.40;1.30;;;;;;;23.86;nan;-24478.97;5033206;28;20694;-66
2022/09/12 09:12:22;;;;;;;1.30;1.17;;;;;;;24.09;nan;-24485.31;5031960;28;20542;-67
2022/09/12 09:15:00;;;;;;;1.50;1.20;;;;;;;23.74;nan;-24475.81;5033178;28;20168;-66
2022/09/12 09:17:39;;;;;;;1.10;1.00;;;;;;;23.84;nan;-24478.44;5040219;28;20682;-67
2022/09/12 09:20:48;;;;;;;2.10;1.27;;;;;;;23.98;nan;-24482.44;5032590;28;20235;-64
2022/09/12 09:23:22;;;;;;;1.65;1.23;;;;;;;23.98;nan;-24482.28;5010338;28;20251;-63
2022/09/12 09:26:35;;;;;;;1.23;1.13;;;;;;;23.89;nan;-24479.81;4991111;28;20180;-64
2022/09/12 09:29:05;;;;;;;1.50;1.10;;;;;;;24.28;nan;-24490.56;4970714;28;20611;-64
2022/09/12 09:31:38;;;;;;;1.77;1.20;;;;;;;24.12;nan;-24486.28;5021246;28;20215;-68
2022/09/12 09:34:18;;;;;;;1.52;1.30;;;;;;;24.11;nan;-24486.00;5044137;28;20190;-66
2022/09/12 09:36:46;;;;;;;1.50;1.20;;;;;;;24.66;nan;-24500.91;5027797;28;20601;-63
2022/09/12 09:39:26;;;;;;;0.93;0.93;;;;;;;24.67;nan;-24501.03;5031867;28;20185;-65
2022/09/12 09:42:13;;;;;;;1.30;1.15;;;;;;;24.67;nan;-24501.19;5041362;28;20228;-65
2022/09/12 09:44:39;;;;;;;1.30;1.13;;;;;;;24.74;nan;-24503.09;5043022;28;20186;-66
2022/09/12 09:47:04;;;;;;;1.33;1.20;;;;;;;24.92;nan;-24507.94;5043684;28;20186;-66
2022/09/12 09:49:33;;;;;;;1.33;1.20;;;;;;;24.78;nan;-24504.06;5034118;28;20209;-67
2022/09/12 09:52:02;;;;;;;1.50;1.20;;;;;;;25.00;nan;-24510.28;5040778;28;20187;-67
2022/09/12 09:54:42;;;;;;;1.08;1.00;;;;;;;24.60;nan;-24499.38;5042770;28;20186;-65
2022/09/12 09:57:35;;;;;;;1.05;0.95;;;;;;;24.95;nan;-24508.75;5031888;28;20190;-65
2022/09/12 10:00:31;;;;;;;0.93;0.93;;;;;;;24.59;nan;-24499.13;5039733;28;20205;-66
2022/09/12 10:03:09;;;;;;;1.10;1.00;;;;;;;25.30;nan;-24518.41;5039088;28;20274;-67
2022/09/12 10:05:52;;;;;;;1.25;1.10;;;;;;;24.98;nan;-24509.72;5034404;28;20183;-66
2022/09/12 10:08:25;;;;;;;1.33;1.23;;;;;;;25.31;nan;-24518.66;5040759;28;20584;-63
2022/09/12 10:11:18;;;;;;;1.10;1.00;;;;;;;25.30;nan;-24518.25;5031806;28;20282;-68
2022/09/12 10:13:53;;;;;;;1.60;1.23;;;;;;;25.46;nan;-24522.66;5026122;28;20294;-63
2022/09/12 10:16:32;;;;;;;1.15;1.05;;;;;;;25.34;nan;-24519.34;5030527;28;20221;-67
2022/09/12 10:19:02;;;;;;;1.85;1.30;;;;;;;24.85;nan;-24506.13;5031857;28;20545;-65
2022/09/12 10:21:31;;;;;;;1.40;1.10;;;;;;;25.20;nan;-24515.50;5031282;28;20246;-61
2022/09/12 10:24:27;;;;;;;1.23;1.10;;;;;;;25.42;nan;-24521.69;5031287;28;20175;-66
2022/09/12 10:26:53;;;;;;;1.98;1.15;;;;;;;25.55;nan;-24525.13;5031341;28;20321;-63
2022/09/12 10:29:31;;;;;;;1.30;1.17;;;;;;;25.47;nan;-24523.06;5030800;28;20218;-67
2022/09/12 10:32:00;;;;;;;1.33;1.20;;;;;;;25.93;nan;-24535.59;5036180;28;20191;-66
2022/09/12 10:34:31;;;;;;;1.45;1.25;;;;;;;25.63;nan;-24527.34;5045627;28;20235;-69
2022/09/12 10:37:04;;;;;;;1.20;1.10;;;;;;;25.32;nan;-24518.94;5041854;28;20224;-65
2022/09/12 10:39:31;;;;;;;1.30;1.13;;;;;;;25.19;nan;-24515.22;5014868;28;20175;-64
2022/09/12 10:41:57;;;;;;;1.30;1.20;;;;;;;25.59;nan;-24526.25;5030983;28;20171;-63
2022/09/12 10:44:29;;;;;;;1.33;1.20;;;;;;;25.73;nan;-24529.94;5045272;28;20180;-65
2022/09/12 10:46:55;;;;;;;1.30;1.20;;;;;;;25.47;nan;-24523.06;5034643;28;20623;-67
2022/09/12 10:49:23;;;;;;;2.08;1.58;;;;;;;25.98;nan;-24536.81;5038304;28;20215;-63
2022/09/12 10:51:49;;;;;;;1.42;1.33;;;;;;;25.88;nan;-24534.22;5035436;28;20194;-66
2022/09/12 10:54:17;;;;;;;2.30;1.67;;;;;;;25.95;nan;-24536.00;5035942;28;20182;-65
2022/09/12 10:57:14;;;;;;;2.65;1.67;;;;;;;26.10;nan;-24539.97;5037729;28;20190;-62
2022/09/12 10:59:42;;;;;;;1.67;1.40;;;;;;;26.09;nan;-24539.72;5040681;28;20175;-65
2022/09/12 11:02:20;;;;;;;3.67;2.00;;;;;;;25.82;nan;-24532.44;5038811;28;20642;-64
2022/09/12 11:05:16;;;;;;;1.50;1.40;;;;;;;25.46;nan;-24522.66;5036705;28;20647;-66
2022/09/12 11:07:48;;;;;;;3.58;2.45;;;;;;;25.52;nan;-24524.31;5035800;28;20182;-63
2022/09/12 11:10:20;;;;;;;1.30;1.20;;;;;;;25.45;nan;-24522.38;5037558;28;20565;-67
2022/09/12 11:13:16;;;;;;;3.15;1.50;;;;;;;25.84;nan;-24532.97;5042179;28;20236;-64
2022/09/12 11:16:12;;;;;;;1.70;1.50;;;;;;;25.80;nan;-24532.00;5025585;28;20184;-67
2022/09/12 11:18:50;;;;;;;1.40;1.30;;;;;;;26.12;nan;-24540.69;5040718;28;20178;-67
2022/09/12 11:21:28;;;;;;;1.95;1.30;;;;;;;26.22;nan;-24543.41;5033279;28;20238;-66
2022/09/12 11:24:06;;;;;;;1.63;1.50;;;;;;;25.75;nan;-24530.50;5032231;28;20250;-64
2022/09/12 11:26:33;;;;;;;2.00;1.73;;;;;;;25.59;nan;-24526.09;5039546;28;20187;-64
2022/09/12 11:29:26;;;;;;;1.50;1.35;;;;;;;25.81;nan;-24532.28;5035860;28;20272;-66
2022/09/12 11:32:22;;;;;;;1.60;1.38;;;;;;;25.97;nan;-24536.56;5032811;28;20307;-63
2022/09/12 11:34:48;;;;;;;2.00;1.55;;;;;;;25.48;nan;-24523.22;5031840;28;20796;-67
2022/09/12 11:37:29;;;;;;;1.50;1.40;;;;;;;25.59;nan;-24526.09;5036430;28;20643;-65
2022/09/12 11:40:01;;;;;;;1.75;1.40;;;;;;;25.41;nan;-24521.41;5033689;28;20252;-64
2022/09/12 11:42:36;;;;;;;1.60;1.40;;;;;;;25.45;nan;-24522.53;5040392;28;20201;-63
2022/09/12 11:45:14;;;;;;;1.90;1.70;;;;;;;25.15;nan;-24514.28;5039376;28;20183;-64
2022/09/12 11:47:43;;;;;;;1.40;1.30;;;;;;;25.52;nan;-24524.44;5040145;28;20685;-66
2022/09/12 11:50:22;;;;;;;2.17;1.60;;;;;;;25.37;nan;-24520.19;5041150;28;20751;-66
2022/09/12 11:52:49;;;;;;;2.13;1.60;;;;;;;24.95;nan;-24508.75;5042105;28;20182;-63
2022/09/12 11:55:20;;;;;;;1.60;1.50;;;;;;;24.96;nan;-24509.03;5040117;28;20194;-63
2022/09/12 11:57:53;;;;;;;1.60;1.40;;;;;;;25.51;nan;-24524.16;5039309;28;20230;-67
2022/09/12 12:00:37;;;;;;;1.75;1.52;;;;;;;25.89;nan;-24534.50;5041064;28;20191;-63
2022/09/12 12:03:42;;;;;;;1.50;1.30;;;;;;;26.33;nan;-24546.31;5037397;28;20187;-62
2022/09/12 12:06:18;;;;;;;1.60;1.40;;;;;;;26.53;nan;-24551.66;5041939;28;20534;-64
2022/09/12 12:08:45;;;;;;;1.60;1.35;;;;;;;26.72;nan;-24557.03;5040585;28;20210;-66